Time;durP1;ratioP1;P1;durP2;ratioP2;P2;SDS_P1;SDS_P2;PMS_P1;PMS_P2;Temp;Humidity;BMP_temperature;BMP_pressure;BME280_temperature;BME280_humidity;BME280_pressure;Samples;Min_cycle;Max_cycle;Signal;HPM_P1;HPM_P2
2022/10/31 18:16:54;;;;;;;3.70;3.43;;;26.00;70.40;;;;;;4962738;28;20464;-84
2022/10/31 18:19:21;;;;;;;6.13;4.07;;;26.00;70.60;;;;;;4975915;28;20457;-85
2022/10/31 18:21:48;;;;;;;4.50;4.17;;;26.00;70.40;;;;;;4978245;28;20445;-84
2022/10/31 18:24:14;;;;;;;4.47;4.07;;;26.00;70.30;;;;;;4978316;28;20492;-84
2022/10/31 18:26:41;;;;;;;3.83;3.53;;;26.00;70.20;;;;;;4978044;28;20453;-86
2022/10/31 18:29:10;;;;;;;3.80;3.50;;;26.10;70.30;;;;;;4978449;28;20543;-84
2022/10/31 18:31:37;;;;;;;4.37;4.03;;;26.10;70.30;;;;;;4978035;28;20459;-84
2022/10/31 18:34:05;;;;;;;4.17;3.87;;;26.10;70.40;;;;;;4978330;28;20539;-84
2022/10/31 18:36:32;;;;;;;4.30;4.00;;;26.10;70.40;;;;;;4978310;28;20475;-86
2022/10/31 18:38:59;;;;;;;3.90;3.10;;;26.10;70.50;;;;;;4978299;28;20436;-84
2022/10/31 18:41:25;;;;;;;4.13;3.77;;;26.10;70.50;;;;;;4978247;28;20451;-85
2022/10/31 18:43:55;;;;;;;3.63;3.27;;;26.10;70.50;;;;;;4978142;28;20543;-84
2022/10/31 18:46:22;;;;;;;4.40;4.00;;;26.10;70.50;;;;;;4978133;28;20448;-84
2022/10/31 18:48:48;;;;;;;4.00;3.70;;;26.10;70.50;;;;;;4978029;28;20519;-85
2022/10/31 18:51:17;;;;;;;4.20;3.90;;;26.10;70.50;;;;;;4978051;28;20803;-84
2022/10/31 18:53:50;;;;;;;4.17;3.80;;;26.10;70.40;;;;;;4977698;28;20504;-85
2022/10/31 18:56:17;;;;;;;4.50;3.87;;;26.20;70.50;;;;;;4977687;28;20444;-84
2022/10/31 18:58:44;;;;;;;3.70;3.50;;;26.30;70.60;;;;;;4977915;28;20509;-88
2022/10/31 19:01:13;;;;;;;4.60;3.30;;;26.10;70.40;;;;;;4977850;28;20453;-85
2022/10/31 19:03:40;;;;;;;4.00;3.70;;;26.10;70.40;;;;;;4977714;28;20958;-84
2022/10/31 19:06:11;;;;;;;3.53;3.33;;;26.10;70.40;;;;;;4977527;28;20453;-84
2022/10/31 19:08:40;;;;;;;3.80;3.60;;;26.20;70.40;;;;;;4977485;28;20492;-83
2022/10/31 19:11:08;;;;;;;4.00;3.60;;;26.10;70.30;;;;;;4977671;28;20448;-84
2022/10/31 19:13:36;;;;;;;3.73;3.43;;;26.10;70.30;;;;;;4977593;28;20797;-84
2022/10/31 19:16:08;;;;;;;3.40;3.20;;;26.10;70.20;;;;;;4977609;28;20452;-84
2022/10/31 19:18:35;;;;;;;3.67;3.37;;;26.10;70.20;;;;;;4977028;28;20516;-84
2022/10/31 19:21:05;;;;;;;4.87;3.90;;;26.10;70.20;;;;;;4977463;28;20451;-84
2022/10/31 19:23:32;;;;;;;4.10;3.80;;;26.10;70.10;;;;;;4977037;28;20483;-84
2022/10/31 19:26:01;;;;;;;3.80;3.50;;;26.10;70.10;;;;;;4977320;28;20445;-84
2022/10/31 19:28:30;;;;;;;3.87;3.57;;;26.10;70.00;;;;;;4976916;28;20448;-83
2022/10/31 19:30:57;;;;;;;3.43;3.23;;;26.10;70.00;;;;;;4977354;28;20456;-85
2022/10/31 19:33:25;;;;;;;3.70;3.40;;;26.10;70.00;;;;;;4976867;28;20451;-84
2022/10/31 19:35:52;;;;;;;3.30;3.00;;;26.10;69.90;;;;;;4977128;28;20499;-83
2022/10/31 19:38:19;;;;;;;3.13;2.93;;;26.10;69.80;;;;;;4977164;28;20452;-84
2022/10/31 19:40:45;;;;;;;3.40;3.20;;;26.10;69.80;;;;;;4977045;28;20441;-84
2022/10/31 19:43:13;;;;;;;3.40;3.20;;;26.10;69.80;;;;;;4977049;28;20502;-83
2022/10/31 19:49:02;;;;;;;3.30;3.10;;;26.10;69.70;;;;;;4976794;28;20444;-84
2022/10/31 19:51:29;;;;;;;3.30;3.10;;;26.10;69.90;;;;;;4976922;28;20455;-84
2022/10/31 19:53:56;;;;;;;3.50;3.20;;;26.00;69.70;;;;;;4976779;28;20451;-83
2022/10/31 19:59:46;;;;;;;3.10;2.90;;;26.10;69.60;;;;;;4976577;28;20408;-84
2022/10/31 20:02:18;;;;;;;3.20;3.00;;;26.00;69.70;;;;;;4976638;28;20445;-84
2022/10/31 20:04:45;;;;;;;3.20;3.00;;;26.10;69.70;;;;;;4976659;28;20484;-84
2022/10/31 20:07:12;;;;;;;3.57;3.27;;;26.00;69.50;;;;;;4976637;28;20952;-84
2022/10/31 20:09:39;;;;;;;3.00;2.80;;;26.10;69.60;;;;;;4976595;28;20449;-84
2022/10/31 20:12:07;;;;;;;2.60;2.40;;;26.00;69.50;;;;;;4976566;28;20449;-84
2022/10/31 20:14:33;;;;;;;2.87;2.67;;;26.10;69.50;;;;;;4976448;28;20528;-84
2022/10/31 20:17:02;;;;;;;3.10;2.90;;;26.00;69.40;;;;;;4976146;28;20483;-84
2022/10/31 20:19:28;;;;;;;3.20;3.00;;;26.10;69.50;;;;;;4976413;28;20653;-85
2022/10/31 20:21:55;;;;;;;3.30;3.07;;;26.10;69.40;;;;;;4976378;28;20441;-84
2022/10/31 20:24:22;;;;;;;3.20;3.00;;;26.00;69.30;;;;;;4976185;28;20496;-84
2022/10/31 20:26:49;;;;;;;3.53;3.23;;;26.10;69.40;;;;;;4976210;28;20449;-84
2022/10/31 20:29:15;;;;;;;3.03;2.73;;;26.10;69.40;;;;;;4975936;28;20453;-84
2022/10/31 20:31:43;;;;;;;3.03;2.83;;;26.10;69.40;;;;;;4976176;28;20445;-85
2022/10/31 20:34:11;;;;;;;2.90;2.70;;;26.10;69.30;;;;;;4975823;28;20449;-83
2022/10/31 20:36:38;;;;;;;2.80;2.60;;;26.10;69.30;;;;;;4975657;28;20958;-83
2022/10/31 20:39:05;;;;;;;2.90;2.70;;;26.10;69.20;;;;;;4975691;28;20453;-83
2022/10/31 20:41:32;;;;;;;3.13;2.93;;;26.10;69.30;;;;;;4975981;28;20477;-84
2022/10/31 20:43:58;;;;;;;3.37;3.07;;;26.00;69.10;;;;;;4974872;28;20519;-84
2022/10/31 20:46:27;;;;;;;2.70;2.50;;;26.00;69.10;;;;;;4975670;28;20445;-84
2022/10/31 20:48:55;;;;;;;3.37;3.17;;;26.00;69.00;;;;;;4975855;28;20544;-85
2022/10/31 20:51:24;;;;;;;3.10;2.87;;;26.10;69.10;;;;;;4975520;28;20495;-84
2022/10/31 20:53:52;;;;;;;3.80;3.50;;;26.00;69.00;;;;;;4975421;28;20452;-84
2022/10/31 20:56:21;;;;;;;3.07;2.30;;;26.00;68.90;;;;;;4975716;28;20442;-84
2022/10/31 20:58:48;;;;;;;3.13;2.93;;;26.00;69.00;;;;;;4975716;28;20441;-84
2022/10/31 21:01:17;;;;;;;3.03;2.73;;;26.00;68.90;;;;;;4975588;28;20441;-83
2022/10/31 21:03:44;;;;;;;3.03;2.80;;;26.00;68.90;;;;;;4975502;28;20496;-84
2022/10/31 21:06:12;;;;;;;4.30;2.50;;;26.00;68.90;;;;;;4975218;28;20452;-84
2022/10/31 21:08:41;;;;;;;2.77;2.60;;;26.00;68.80;;;;;;4975510;28;20535;-84
2022/10/31 21:11:11;;;;;;;2.80;2.60;;;26.00;68.80;;;;;;4975456;28;20545;-84
2022/10/31 21:13:38;;;;;;;3.37;3.03;;;26.00;68.70;;;;;;4975478;28;20437;-83
2022/10/31 21:16:08;;;;;;;2.63;2.43;;;26.00;68.70;;;;;;4975344;28;20448;-83
2022/10/31 21:18:36;;;;;;;2.67;2.57;;;26.00;68.70;;;;;;4974927;28;20476;-84
2022/10/31 21:21:08;;;;;;;2.70;2.50;;;26.00;68.70;;;;;;4975020;28;20448;-84
2022/10/31 21:23:34;;;;;;;2.90;2.70;;;26.00;68.60;;;;;;4975265;28;20483;-84
2022/10/31 21:26:06;;;;;;;2.63;2.50;;;26.00;68.60;;;;;;4974951;28;20444;-84
2022/10/31 21:28:33;;;;;;;2.43;2.30;;;26.00;68.60;;;;;;4975213;28;20439;-84
2022/10/31 21:31:00;;;;;;;3.50;3.20;;;26.00;68.70;;;;;;4975165;28;20935;-84
2022/10/31 21:33:27;;;;;;;2.13;2.03;;;26.00;68.70;;;;;;4974842;28;20942;-84
2022/10/31 21:35:53;;;;;;;2.30;2.20;;;26.00;68.60;;;;;;4974814;28;20448;-85
2022/10/31 21:38:20;;;;;;;2.40;2.20;;;26.00;69.50;;;;;;4975133;28;20478;-84
2022/10/31 21:40:47;;;;;;;2.60;2.37;;;26.00;68.60;;;;;;4975159;28;20450;-84
2022/10/31 21:43:15;;;;;;;2.50;2.30;;;26.00;68.50;;;;;;4975001;28;20484;-86
2022/10/31 21:45:42;;;;;;;3.00;2.80;;;26.00;68.60;;;;;;4975058;28;20532;-84
2022/10/31 21:48:09;;;;;;;2.60;2.40;;;26.00;68.00;;;;;;4974641;28;20458;-83
2022/10/31 21:50:35;;;;;;;2.50;2.40;;;26.00;68.40;;;;;;4974559;28;20460;-84
2022/10/31 21:54:26;;;;;;;2.90;2.20;;;26.00;68.30;;;;;;4974611;28;20957;-85
2022/10/31 21:55:48;;;;;;;2.90;2.20;;;26.00;68.30;;;;;;4980840;28;20450;-84
2022/10/31 21:58:16;;;;;;;2.30;2.10;;;26.00;68.50;;;;;;4981123;28;20444;-82
2022/10/31 22:00:43;;;;;;;2.87;2.67;;;26.00;68.50;;;;;;4981065;28;20204;-83
2022/10/31 22:03:09;;;;;;;2.63;2.43;;;26.20;68.80;;;;;;4980949;28;20968;-84
2022/10/31 22:05:36;;;;;;;5.33;2.37;;;26.00;68.50;;;;;;4981044;28;20934;-83
2022/10/31 22:08:03;;;;;;;2.90;2.63;;;26.00;68.50;;;;;;4981257;28;20451;-84
2022/10/31 22:10:30;;;;;;;2.43;2.23;;;26.00;68.70;;;;;;4980948;28;20452;-84
2022/10/31 22:12:57;;;;;;;2.37;2.17;;;26.00;68.50;;;;;;4981287;28;20449;-84
2022/10/31 22:15:25;;;;;;;2.50;2.30;;;26.00;68.60;;;;;;4981168;28;20459;-84
2022/10/31 22:17:52;;;;;;;4.23;2.57;;;26.00;68.50;;;;;;4980720;28;20480;-84
2022/10/31 22:20:20;;;;;;;3.30;2.10;;;26.00;68.70;;;;;;4980782;28;20448;-85
2022/10/31 22:22:47;;;;;;;2.13;2.03;;;26.00;68.70;;;;;;4981642;28;20454;-85
2022/10/31 22:25:14;;;;;;;2.40;2.20;;;26.00;68.60;;;;;;4980711;28;21019;-85
2022/10/31 22:27:41;;;;;;;2.00;1.90;;;26.00;68.50;;;;;;4980747;28;20452;-84
2022/10/31 22:30:09;;;;;;;2.20;2.10;;;26.00;68.40;;;;;;4981084;28;20562;-84
2022/10/31 22:32:37;;;;;;;2.50;2.27;;;26.00;68.30;;;;;;4980967;28;20455;-85
2022/10/31 22:35:05;;;;;;;2.73;2.10;;;26.00;68.40;;;;;;4980716;28;20456;-84
2022/10/31 22:37:31;;;;;;;2.20;2.10;;;26.00;68.40;;;;;;4981027;28;20452;-84
2022/10/31 22:39:58;;;;;;;2.53;2.00;;;26.00;68.60;;;;;;4980975;28;20436;-86
2022/10/31 22:42:25;;;;;;;2.47;2.27;;;26.00;68.40;;;;;;4980637;28;20573;-89
2022/10/31 22:44:52;;;;;;;2.77;2.57;;;26.00;68.10;;;;;;4980847;28;20843;-84
2022/10/31 22:47:18;;;;;;;2.47;2.03;;;26.00;67.80;;;;;;4980941;28;20946;-84
2022/10/31 22:49:47;;;;;;;2.20;1.90;;;26.00;68.10;;;;;;4980836;28;20466;-85
2022/10/31 22:52:14;;;;;;;2.30;2.20;;;26.00;67.90;;;;;;4980889;28;20544;-85
2022/10/31 22:54:42;;;;;;;2.80;2.00;;;26.00;68.00;;;;;;4980507;28;20958;-85
2022/10/31 23:00:31;;;;;;;2.03;1.93;;;26.00;67.80;;;;;;4980700;28;20400;-84
2022/10/31 23:02:57;;;;;;;2.03;1.83;;;25.90;67.90;;;;;;4980754;28;20458;-85
2022/10/31 23:05:25;;;;;;;2.23;1.90;;;25.90;67.90;;;;;;4979282;28;20491;-84
2022/10/31 23:07:52;;;;;;;3.50;2.20;;;26.00;68.00;;;;;;4978276;28;20445;-84
2022/10/31 23:10:19;;;;;;;1.90;1.80;;;26.10;68.10;;;;;;4977592;28;20448;-84
2022/10/31 23:15:30;;;;;;;2.10;2.00;;;26.00;67.90;;;;;;4977674;28;20946;-85
2022/10/31 23:17:57;;;;;;;2.10;2.00;;;26.00;67.80;;;;;;4977043;28;20479;-85
2022/10/31 23:20:25;;;;;;;2.47;2.27;;;26.00;67.80;;;;;;4977124;28;20936;-85
2022/10/31 23:22:52;;;;;;;2.10;2.00;;;26.00;67.80;;;;;;4977392;28;20449;-84
2022/10/31 23:28:03;;;;;;;2.07;1.97;;;26.00;67.90;;;;;;4977201;28;20408;-84
2022/10/31 23:30:30;;;;;;;2.53;1.87;;;26.00;67.90;;;;;;4977221;28;20803;-84
2022/10/31 23:32:56;;;;;;;1.60;1.50;;;26.00;67.80;;;;;;4976972;28;20954;-85
2022/10/31 23:35:25;;;;;;;2.10;2.00;;;26.00;67.80;;;;;;4976893;28;20455;-84
2022/10/31 23:37:51;;;;;;;1.77;1.67;;;26.00;67.70;;;;;;4976866;28;20449;-84
2022/10/31 23:40:20;;;;;;;2.13;1.63;;;26.00;67.80;;;;;;4977185;28;20454;-84
2022/10/31 23:42:47;;;;;;;1.57;1.47;;;25.90;67.80;;;;;;4977086;28;20455;-85
2022/10/31 23:45:15;;;;;;;2.33;2.13;;;26.00;67.70;;;;;;4976973;28;20496;-85
2022/10/31 23:47:41;;;;;;;1.77;1.67;;;26.00;67.70;;;;;;4977029;28;20511;-84
2022/10/31 23:50:09;;;;;;;2.03;1.93;;;26.00;67.80;;;;;;4977012;28;20445;-85
2022/10/31 23:52:37;;;;;;;1.80;1.70;;;26.00;67.70;;;;;;4976632;28;20452;-84
2022/10/31 23:55:04;;;;;;;1.77;1.67;;;26.00;67.70;;;;;;4976856;28;20441;-84
2022/10/31 23:57:31;;;;;;;1.97;1.70;;;25.90;67.70;;;;;;4976864;28;20446;-84
2022/10/31 23:59:57;;;;;;;1.77;1.67;;;26.00;67.70;;;;;;4976689;28;20467;-85
